sensor_id;sensor_type;location;lat;lon;timestamp;P1;durP1;ratioP1;P2;durP2;ratioP2
9461;SDS011;4769;42.660;23.262;2023-04-29T00:01:52;9.67;;;6.47;;
9461;SDS011;4769;42.660;23.262;2023-04-29T00:04:18;9.10;;;6.23;;
9461;SDS011;4769;42.660;23.262;2023-04-29T00:06:44;8.00;;;6.20;;
9461;SDS011;4769;42.660;23.262;2023-04-29T00:09:09;12.13;;;6.83;;
9461;SDS011;4769;42.660;23.262;2023-04-29T00:11:35;9.77;;;6.80;;
9461;SDS011;4769;42.660;23.262;2023-04-29T00:14:01;9.13;;;6.17;;
9461;SDS011;4769;42.660;23.262;2023-04-29T00:16:29;8.27;;;5.90;;
9461;SDS011;4769;42.660;23.262;2023-04-29T00:18:55;13.77;;;6.17;;
9461;SDS011;4769;42.660;23.262;2023-04-29T00:21:20;7.93;;;6.17;;
9461;SDS011;4769;42.660;23.262;2023-04-29T00:23:46;7.53;;;6.50;;
9461;SDS011;4769;42.660;23.262;2023-04-29T00:26:12;18.63;;;7.30;;
9461;SDS011;4769;42.660;23.262;2023-04-29T00:28:37;11.20;;;7.60;;
9461;SDS011;4769;42.660;23.262;2023-04-29T00:31:03;10.53;;;6.67;;
9461;SDS011;4769;42.660;23.262;2023-04-29T00:33:31;12.37;;;7.77;;
9461;SDS011;4769;42.660;23.262;2023-04-29T00:35:57;7.57;;;6.43;;
9461;SDS011;4769;42.660;23.262;2023-04-29T00:38:23;7.63;;;6.70;;
9461;SDS011;4769;42.660;23.262;2023-04-29T00:40:49;7.17;;;5.77;;
9461;SDS011;4769;42.660;23.262;2023-04-29T00:43:15;11.83;;;6.70;;
9461;SDS011;4769;42.660;23.262;2023-04-29T00:45:40;10.10;;;6.00;;
9461;SDS011;4769;42.660;23.262;2023-04-29T00:48:06;9.33;;;6.73;;
9461;SDS011;4769;42.660;23.262;2023-04-29T00:50:34;8.43;;;6.10;;
9461;SDS011;4769;42.660;23.262;2023-04-29T00:53:00;8.70;;;5.93;;
9461;SDS011;4769;42.660;23.262;2023-04-29T00:55:26;8.87;;;6.20;;
9461;SDS011;4769;42.660;23.262;2023-04-29T00:57:53;9.17;;;6.10;;
9461;SDS011;4769;42.660;23.262;2023-04-29T01:00:19;8.57;;;6.30;;
9461;SDS011;4769;42.660;23.262;2023-04-29T01:02:45;9.70;;;7.07;;
9461;SDS011;4769;42.660;23.262;2023-04-29T01:05:11;9.53;;;8.27;;
9461;SDS011;4769;42.660;23.262;2023-04-29T01:07:41;10.03;;;7.97;;
9461;SDS011;4769;42.660;23.262;2023-04-29T01:10:13;8.73;;;7.30;;
9461;SDS011;4769;42.660;23.262;2023-04-29T01:12:44;11.03;;;7.93;;
9461;SDS011;4769;42.660;23.262;2023-04-29T01:15:15;10.70;;;7.80;;
9461;SDS011;4769;42.660;23.262;2023-04-29T01:17:47;11.23;;;7.80;;
9461;SDS011;4769;42.660;23.262;2023-04-29T01:20:16;11.00;;;8.20;;
9461;SDS011;4769;42.660;23.262;2023-04-29T01:22:45;10.60;;;8.03;;
9461;SDS011;4769;42.660;23.262;2023-04-29T01:25:14;9.33;;;6.90;;
9461;SDS011;4769;42.660;23.262;2023-04-29T01:27:41;8.70;;;5.97;;
9461;SDS011;4769;42.660;23.262;2023-04-29T01:30:17;6.87;;;6.07;;
9461;SDS011;4769;42.660;23.262;2023-04-29T01:32:51;7.40;;;5.63;;
9461;SDS011;4769;42.660;23.262;2023-04-29T01:35:27;12.20;;;6.57;;
9461;SDS011;4769;42.660;23.262;2023-04-29T01:38:04;8.83;;;5.83;;
9461;SDS011;4769;42.660;23.262;2023-04-29T01:40:46;14.63;;;6.03;;
9461;SDS011;4769;42.660;23.262;2023-04-29T01:43:17;8.43;;;5.70;;
9461;SDS011;4769;42.660;23.262;2023-04-29T01:45:47;12.37;;;6.60;;
9461;SDS011;4769;42.660;23.262;2023-04-29T01:48:13;7.03;;;6.00;;
9461;SDS011;4769;42.660;23.262;2023-04-29T01:50:40;6.70;;;5.53;;
9461;SDS011;4769;42.660;23.262;2023-04-29T01:53:06;8.03;;;5.27;;
9461;SDS011;4769;42.660;23.262;2023-04-29T01:55:32;6.93;;;5.50;;
9461;SDS011;4769;42.660;23.262;2023-04-29T01:58:00;8.27;;;5.57;;
9461;SDS011;4769;42.660;23.262;2023-04-29T02:00:26;9.10;;;5.73;;
9461;SDS011;4769;42.660;23.262;2023-04-29T02:02:52;9.07;;;6.10;;
9461;SDS011;4769;42.660;23.262;2023-04-29T02:05:17;7.77;;;6.60;;
9461;SDS011;4769;42.660;23.262;2023-04-29T02:07:43;8.23;;;6.03;;
9461;SDS011;4769;42.660;23.262;2023-04-29T02:10:09;7.27;;;5.80;;
9461;SDS011;4769;42.660;23.262;2023-04-29T02:12:35;7.97;;;5.73;;
9461;SDS011;4769;42.660;23.262;2023-04-29T02:15:06;7.90;;;5.43;;
9461;SDS011;4769;42.660;23.262;2023-04-29T02:17:33;7.87;;;6.00;;
9461;SDS011;4769;42.660;23.262;2023-04-29T02:19:59;7.83;;;5.80;;
9461;SDS011;4769;42.660;23.262;2023-04-29T02:22:25;8.53;;;5.57;;
9461;SDS011;4769;42.660;23.262;2023-04-29T02:24:51;8.67;;;5.47;;
9461;SDS011;4769;42.660;23.262;2023-04-29T02:27:16;9.50;;;5.70;;
9461;SDS011;4769;42.660;23.262;2023-04-29T02:29:42;8.93;;;5.33;;
9461;SDS011;4769;42.660;23.262;2023-04-29T02:32:11;6.67;;;4.97;;
9461;SDS011;4769;42.660;23.262;2023-04-29T02:34:36;7.30;;;4.63;;
9461;SDS011;4769;42.660;23.262;2023-04-29T02:37:02;10.80;;;5.90;;
9461;SDS011;4769;42.660;23.262;2023-04-29T02:39:28;6.07;;;4.90;;
9461;SDS011;4769;42.660;23.262;2023-04-29T02:41:53;7.47;;;5.23;;
9461;SDS011;4769;42.660;23.262;2023-04-29T02:44:19;12.63;;;6.17;;
9461;SDS011;4769;42.660;23.262;2023-04-29T02:46:45;7.17;;;5.53;;
9461;SDS011;4769;42.660;23.262;2023-04-29T02:49:14;7.63;;;6.00;;
9461;SDS011;4769;42.660;23.262;2023-04-29T02:51:39;13.60;;;6.60;;
9461;SDS011;4769;42.660;23.262;2023-04-29T02:54:05;9.27;;;7.13;;
9461;SDS011;4769;42.660;23.262;2023-04-29T02:56:31;8.83;;;7.00;;
9461;SDS011;4769;42.660;23.262;2023-04-29T02:58:56;11.33;;;8.07;;
9461;SDS011;4769;42.660;23.262;2023-04-29T03:01:22;10.60;;;7.73;;
9461;SDS011;4769;42.660;23.262;2023-04-29T03:03:48;13.23;;;8.50;;
9461;SDS011;4769;42.660;23.262;2023-04-29T03:06:16;14.07;;;9.43;;
9461;SDS011;4769;42.660;23.262;2023-04-29T03:08:42;15.00;;;8.57;;
9461;SDS011;4769;42.660;23.262;2023-04-29T03:11:08;12.50;;;9.37;;
9461;SDS011;4769;42.660;23.262;2023-04-29T03:13:34;13.37;;;10.23;;
9461;SDS011;4769;42.660;23.262;2023-04-29T03:15:59;15.67;;;9.97;;
9461;SDS011;4769;42.660;23.262;2023-04-29T03:18:25;13.03;;;9.87;;
9461;SDS011;4769;42.660;23.262;2023-04-29T03:20:51;12.33;;;9.77;;
9461;SDS011;4769;42.660;23.262;2023-04-29T03:23:19;11.77;;;9.70;;
9461;SDS011;4769;42.660;23.262;2023-04-29T03:25:45;8.90;;;7.27;;
9461;SDS011;4769;42.660;23.262;2023-04-29T03:28:10;12.53;;;9.90;;
9461;SDS011;4769;42.660;23.262;2023-04-29T03:30:36;11.90;;;8.97;;
9461;SDS011;4769;42.660;23.262;2023-04-29T03:33:02;12.73;;;8.87;;
9461;SDS011;4769;42.660;23.262;2023-04-29T03:35:28;13.97;;;8.60;;
9461;SDS011;4769;42.660;23.262;2023-04-29T03:37:53;9.87;;;8.30;;
9461;SDS011;4769;42.660;23.262;2023-04-29T03:40:22;10.73;;;8.70;;
9461;SDS011;4769;42.660;23.262;2023-04-29T03:42:47;9.60;;;8.03;;
9461;SDS011;4769;42.660;23.262;2023-04-29T03:45:13;15.37;;;9.43;;
9461;SDS011;4769;42.660;23.262;2023-04-29T03:47:39;11.40;;;8.43;;
9461;SDS011;4769;42.660;23.262;2023-04-29T03:50:05;13.27;;;8.30;;
9461;SDS011;4769;42.660;23.262;2023-04-29T03:52:32;11.83;;;7.30;;
9461;SDS011;4769;42.660;23.262;2023-04-29T03:54:58;10.60;;;7.10;;
9461;SDS011;4769;42.660;23.262;2023-04-29T03:57:26;9.80;;;7.43;;
9461;SDS011;4769;42.660;23.262;2023-04-29T03:59:52;9.67;;;7.27;;
9461;SDS011;4769;42.660;23.262;2023-04-29T04:02:18;10.23;;;7.60;;
9461;SDS011;4769;42.660;23.262;2023-04-29T04:04:44;11.17;;;7.43;;
9461;SDS011;4769;42.660;23.262;2023-04-29T04:07:09;14.47;;;8.13;;
9461;SDS011;4769;42.660;23.262;2023-04-29T04:09:35;11.73;;;7.90;;
9461;SDS011;4769;42.660;23.262;2023-04-29T04:12:01;13.93;;;8.30;;
9461;SDS011;4769;42.660;23.262;2023-04-29T04:14:29;14.20;;;7.87;;
9461;SDS011;4769;42.660;23.262;2023-04-29T04:16:55;12.03;;;7.37;;
9461;SDS011;4769;42.660;23.262;2023-04-29T04:19:20;9.63;;;7.60;;
9461;SDS011;4769;42.660;23.262;2023-04-29T04:21:46;17.40;;;8.37;;
9461;SDS011;4769;42.660;23.262;2023-04-29T04:24:12;16.10;;;8.83;;
9461;SDS011;4769;42.660;23.262;2023-04-29T04:26:37;12.50;;;8.00;;
9461;SDS011;4769;42.660;23.262;2023-04-29T04:29:03;14.70;;;8.60;;
9461;SDS011;4769;42.660;23.262;2023-04-29T04:31:31;10.40;;;7.97;;
9461;SDS011;4769;42.660;23.262;2023-04-29T04:33:57;11.33;;;7.97;;
9461;SDS011;4769;42.660;23.262;2023-04-29T04:36:23;12.73;;;8.17;;
9461;SDS011;4769;42.660;23.262;2023-04-29T04:38:48;13.50;;;7.73;;
9461;SDS011;4769;42.660;23.262;2023-04-29T04:41:14;14.27;;;8.20;;
9461;SDS011;4769;42.660;23.262;2023-04-29T04:43:40;19.90;;;9.57;;
9461;SDS011;4769;42.660;23.262;2023-04-29T04:46:09;14.93;;;10.17;;
9461;SDS011;4769;42.660;23.262;2023-04-29T04:48:37;17.33;;;11.33;;
9461;SDS011;4769;42.660;23.262;2023-04-29T04:51:06;16.77;;;9.97;;
9461;SDS011;4769;42.660;23.262;2023-04-29T04:53:32;17.07;;;9.67;;
9461;SDS011;4769;42.660;23.262;2023-04-29T04:55:59;17.90;;;9.60;;
9461;SDS011;4769;42.660;23.262;2023-04-29T04:58:25;15.47;;;8.50;;
9461;SDS011;4769;42.660;23.262;2023-04-29T05:00:51;19.23;;;14.77;;
9461;SDS011;4769;42.660;23.262;2023-04-29T05:03:17;30.87;;;23.00;;
9461;SDS011;4769;42.660;23.262;2023-04-29T05:05:45;16.53;;;11.80;;
9461;SDS011;4769;42.660;23.262;2023-04-29T05:08:16;20.63;;;11.50;;
9461;SDS011;4769;42.660;23.262;2023-04-29T05:10:42;18.40;;;11.73;;
9461;SDS011;4769;42.660;23.262;2023-04-29T05:13:08;17.47;;;9.87;;
9461;SDS011;4769;42.660;23.262;2023-04-29T05:15:33;11.57;;;8.60;;
9461;SDS011;4769;42.660;23.262;2023-04-29T05:17:59;10.37;;;8.83;;
9461;SDS011;4769;42.660;23.262;2023-04-29T05:20:25;12.97;;;8.97;;
9461;SDS011;4769;42.660;23.262;2023-04-29T05:22:53;15.30;;;9.03;;
9461;SDS011;4769;42.660;23.262;2023-04-29T05:25:19;13.57;;;9.23;;
9461;SDS011;4769;42.660;23.262;2023-04-29T05:27:45;12.67;;;9.07;;
9461;SDS011;4769;42.660;23.262;2023-04-29T05:30:11;13.80;;;9.47;;
9461;SDS011;4769;42.660;23.262;2023-04-29T05:32:37;16.13;;;10.07;;
9461;SDS011;4769;42.660;23.262;2023-04-29T05:35:03;19.13;;;10.47;;
9461;SDS011;4769;42.660;23.262;2023-04-29T05:37:29;14.47;;;9.77;;
9461;SDS011;4769;42.660;23.262;2023-04-29T05:39:57;13.90;;;9.23;;
9461;SDS011;4769;42.660;23.262;2023-04-29T05:42:23;15.77;;;9.93;;
9461;SDS011;4769;42.660;23.262;2023-04-29T05:44:49;15.77;;;9.77;;
9461;SDS011;4769;42.660;23.262;2023-04-29T05:47:15;21.77;;;9.27;;
9461;SDS011;4769;42.660;23.262;2023-04-29T05:49:41;17.47;;;10.20;;
9461;SDS011;4769;42.660;23.262;2023-04-29T05:52:06;12.80;;;9.47;;
9461;SDS011;4769;42.660;23.262;2023-04-29T05:54:32;14.37;;;9.67;;
9461;SDS011;4769;42.660;23.262;2023-04-29T05:57:01;17.43;;;9.80;;
9461;SDS011;4769;42.660;23.262;2023-04-29T05:59:27;14.90;;;8.97;;
9461;SDS011;4769;42.660;23.262;2023-04-29T06:01:53;16.00;;;10.20;;
9461;SDS011;4769;42.660;23.262;2023-04-29T06:04:19;13.97;;;9.97;;
9461;SDS011;4769;42.660;23.262;2023-04-29T06:06:45;15.93;;;9.50;;
9461;SDS011;4769;42.660;23.262;2023-04-29T06:09:10;18.20;;;9.93;;
9461;SDS011;4769;42.660;23.262;2023-04-29T06:11:36;17.23;;;9.83;;
9461;SDS011;4769;42.660;23.262;2023-04-29T06:14:04;14.23;;;9.37;;
9461;SDS011;4769;42.660;23.262;2023-04-29T06:16:30;12.80;;;9.57;;
9461;SDS011;4769;42.660;23.262;2023-04-29T06:18:56;12.77;;;9.30;;
9461;SDS011;4769;42.660;23.262;2023-04-29T06:21:21;14.67;;;10.10;;
9461;SDS011;4769;42.660;23.262;2023-04-29T06:23:47;14.80;;;9.17;;
9461;SDS011;4769;42.660;23.262;2023-04-29T06:26:13;12.50;;;8.47;;
9461;SDS011;4769;42.660;23.262;2023-04-29T06:28:38;17.23;;;9.50;;
9461;SDS011;4769;42.660;23.262;2023-04-29T06:31:07;12.13;;;8.93;;
9461;SDS011;4769;42.660;23.262;2023-04-29T06:33:32;14.70;;;10.30;;
9461;SDS011;4769;42.660;23.262;2023-04-29T06:35:58;13.90;;;9.83;;
9461;SDS011;4769;42.660;23.262;2023-04-29T06:38:25;13.40;;;9.70;;
9461;SDS011;4769;42.660;23.262;2023-04-29T06:40:50;17.15;;;10.10;;
9461;SDS011;4769;42.660;23.262;2023-04-29T06:43:16;12.83;;;10.00;;
9461;SDS011;4769;42.660;23.262;2023-04-29T06:45:44;12.85;;;9.80;;
9461;SDS011;4769;42.660;23.262;2023-04-29T06:48:14;17.03;;;11.77;;
9461;SDS011;4769;42.660;23.262;2023-04-29T06:50:47;15.57;;;10.50;;
9461;SDS011;4769;42.660;23.262;2023-04-29T06:53:13;14.80;;;10.33;;
9461;SDS011;4769;42.660;23.262;2023-04-29T06:55:39;14.33;;;9.60;;
9461;SDS011;4769;42.660;23.262;2023-04-29T06:58:04;14.35;;;9.07;;
9461;SDS011;4769;42.660;23.262;2023-04-29T07:00:30;16.30;;;10.10;;
9461;SDS011;4769;42.660;23.262;2023-04-29T07:02:56;16.13;;;10.18;;
9461;SDS011;4769;42.660;23.262;2023-04-29T07:05:24;12.20;;;10.32;;
9461;SDS011;4769;42.660;23.262;2023-04-29T07:07:50;13.32;;;10.57;;
9461;SDS011;4769;42.660;23.262;2023-04-29T07:10:16;20.88;;;12.50;;
9461;SDS011;4769;42.660;23.262;2023-04-29T07:12:41;13.73;;;11.55;;
9461;SDS011;4769;42.660;23.262;2023-04-29T07:15:07;17.92;;;10.35;;
9461;SDS011;4769;42.660;23.262;2023-04-29T07:17:34;13.68;;;8.93;;
9461;SDS011;4769;42.660;23.262;2023-04-29T07:19:59;13.15;;;8.98;;
9461;SDS011;4769;42.660;23.262;2023-04-29T07:22:28;11.85;;;9.40;;
9461;SDS011;4769;42.660;23.262;2023-04-29T07:24:54;19.85;;;11.10;;
9461;SDS011;4769;42.660;23.262;2023-04-29T07:27:20;14.45;;;10.15;;
9461;SDS011;4769;42.660;23.262;2023-04-29T07:29:46;10.98;;;9.73;;
9461;SDS011;4769;42.660;23.262;2023-04-29T07:32:11;13.95;;;10.10;;
9461;SDS011;4769;42.660;23.262;2023-04-29T07:34:37;14.90;;;9.80;;
9461;SDS011;4769;42.660;23.262;2023-04-29T07:37:03;14.25;;;9.88;;
9461;SDS011;4769;42.660;23.262;2023-04-29T07:39:31;17.08;;;10.50;;
9461;SDS011;4769;42.660;23.262;2023-04-29T07:41:57;15.05;;;9.60;;
9461;SDS011;4769;42.660;23.262;2023-04-29T07:44:23;16.17;;;8.75;;
9461;SDS011;4769;42.660;23.262;2023-04-29T07:46:49;18.25;;;8.85;;
9461;SDS011;4769;42.660;23.262;2023-04-29T07:49:17;9.48;;;7.75;;
9461;SDS011;4769;42.660;23.262;2023-04-29T07:51:43;14.73;;;8.50;;
9461;SDS011;4769;42.660;23.262;2023-04-29T07:54:09;13.98;;;9.15;;
9461;SDS011;4769;42.660;23.262;2023-04-29T07:56:37;11.43;;;8.77;;
9461;SDS011;4769;42.660;23.262;2023-04-29T07:59:03;17.00;;;8.30;;
9461;SDS011;4769;42.660;23.262;2023-04-29T08:01:28;10.80;;;7.75;;
9461;SDS011;4769;42.660;23.262;2023-04-29T08:03:54;11.60;;;8.52;;
9461;SDS011;4769;42.660;23.262;2023-04-29T08:06:20;14.18;;;8.45;;
9461;SDS011;4769;42.660;23.262;2023-04-29T08:08:45;14.38;;;7.85;;
9461;SDS011;4769;42.660;23.262;2023-04-29T08:11:14;14.95;;;8.70;;
9461;SDS011;4769;42.660;23.262;2023-04-29T08:13:43;14.75;;;9.27;;
9461;SDS011;4769;42.660;23.262;2023-04-29T08:16:09;9.90;;;8.43;;
9461;SDS011;4769;42.660;23.262;2023-04-29T08:18:35;12.73;;;9.07;;
9461;SDS011;4769;42.660;23.262;2023-04-29T08:21:01;16.15;;;9.35;;
9461;SDS011;4769;42.660;23.262;2023-04-29T08:23:26;10.23;;;8.77;;
9461;SDS011;4769;42.660;23.262;2023-04-29T08:25:52;13.77;;;8.77;;
9461;SDS011;4769;42.660;23.262;2023-04-29T08:28:18;17.80;;;9.45;;
9461;SDS011;4769;42.660;23.262;2023-04-29T08:30:46;10.10;;;8.38;;
9461;SDS011;4769;42.660;23.262;2023-04-29T08:33:12;10.70;;;8.25;;
9461;SDS011;4769;42.660;23.262;2023-04-29T08:35:37;9.93;;;7.70;;
9461;SDS011;4769;42.660;23.262;2023-04-29T08:38:03;12.43;;;7.55;;
9461;SDS011;4769;42.660;23.262;2023-04-29T08:40:35;11.10;;;7.72;;
9461;SDS011;4769;42.660;23.262;2023-04-29T08:43:05;10.73;;;7.45;;
9461;SDS011;4769;42.660;23.262;2023-04-29T08:45:32;12.43;;;7.35;;
9461;SDS011;4769;42.660;23.262;2023-04-29T08:48:02;12.02;;;7.30;;
9461;SDS011;4769;42.660;23.262;2023-04-29T08:50:29;9.05;;;7.30;;
9461;SDS011;4769;42.660;23.262;2023-04-29T08:52:56;10.18;;;7.43;;
9461;SDS011;4769;42.660;23.262;2023-04-29T08:55:22;11.18;;;7.70;;
9461;SDS011;4769;42.660;23.262;2023-04-29T08:57:48;13.90;;;7.60;;
9461;SDS011;4769;42.660;23.262;2023-04-29T09:00:14;11.07;;;8.13;;
9461;SDS011;4769;42.660;23.262;2023-04-29T09:02:42;12.57;;;8.15;;
9461;SDS011;4769;42.660;23.262;2023-04-29T09:05:13;10.68;;;7.43;;
9461;SDS011;4769;42.660;23.262;2023-04-29T09:07:39;9.30;;;7.28;;
9461;SDS011;4769;42.660;23.262;2023-04-29T09:10:06;13.88;;;8.20;;
9461;SDS011;4769;42.660;23.262;2023-04-29T09:12:32;11.88;;;8.10;;
9461;SDS011;4769;42.660;23.262;2023-04-29T09:14:58;13.35;;;8.70;;
9461;SDS011;4769;42.660;23.262;2023-04-29T09:17:37;12.70;;;8.55;;
9461;SDS011;4769;42.660;23.262;2023-04-29T09:22:54;15.10;;;7.85;;
9461;SDS011;4769;42.660;23.262;2023-04-29T09:25:21;13.90;;;8.05;;
9461;SDS011;4769;42.660;23.262;2023-04-29T09:27:47;18.83;;;9.35;;
9461;SDS011;4769;42.660;23.262;2023-04-29T09:30:13;19.27;;;8.80;;
9461;SDS011;4769;42.660;23.262;2023-04-29T09:32:39;11.68;;;7.53;;
9461;SDS011;4769;42.660;23.262;2023-04-29T09:35:20;8.70;;;7.80;;
9461;SDS011;4769;42.660;23.262;2023-04-29T09:37:49;9.75;;;7.78;;
9461;SDS011;4769;42.660;23.262;2023-04-29T09:40:26;10.50;;;7.95;;
9461;SDS011;4769;42.660;23.262;2023-04-29T09:42:52;12.88;;;7.93;;
9461;SDS011;4769;42.660;23.262;2023-04-29T09:45:30;10.93;;;7.60;;
9461;SDS011;4769;42.660;23.262;2023-04-29T09:48:00;12.07;;;8.10;;
9461;SDS011;4769;42.660;23.262;2023-04-29T09:50:26;9.27;;;7.55;;
9461;SDS011;4769;42.660;23.262;2023-04-29T09:52:54;8.50;;;7.55;;
9461;SDS011;4769;42.660;23.262;2023-04-29T09:55:20;8.55;;;7.63;;
9461;SDS011;4769;42.660;23.262;2023-04-29T09:57:46;12.48;;;7.43;;
9461;SDS011;4769;42.660;23.262;2023-04-29T10:00:12;12.30;;;8.05;;
9461;SDS011;4769;42.660;23.262;2023-04-29T10:02:40;14.30;;;8.32;;
9461;SDS011;4769;42.660;23.262;2023-04-29T10:05:07;15.52;;;7.93;;
9461;SDS011;4769;42.660;23.262;2023-04-29T10:07:34;14.73;;;7.32;;
9461;SDS011;4769;42.660;23.262;2023-04-29T10:10:07;12.52;;;7.60;;
9461;SDS011;4769;42.660;23.262;2023-04-29T10:12:34;11.13;;;7.30;;
9461;SDS011;4769;42.660;23.262;2023-04-29T10:15:01;9.77;;;7.65;;
9461;SDS011;4769;42.660;23.262;2023-04-29T10:17:33;11.10;;;8.00;;
9461;SDS011;4769;42.660;23.262;2023-04-29T10:20:02;11.75;;;7.88;;
9461;SDS011;4769;42.660;23.262;2023-04-29T10:22:33;9.57;;;6.72;;
9461;SDS011;4769;42.660;23.262;2023-04-29T10:25:09;10.55;;;6.78;;
9461;SDS011;4769;42.660;23.262;2023-04-29T10:27:35;11.48;;;7.05;;
9461;SDS011;4769;42.660;23.262;2023-04-29T10:30:01;9.48;;;6.95;;
9461;SDS011;4769;42.660;23.262;2023-04-29T10:32:30;9.52;;;6.45;;
9461;SDS011;4769;42.660;23.262;2023-04-29T10:34:58;10.40;;;6.70;;
9461;SDS011;4769;42.660;23.262;2023-04-29T10:37:26;14.25;;;6.88;;
9461;SDS011;4769;42.660;23.262;2023-04-29T10:39:54;9.00;;;6.13;;
9461;SDS011;4769;42.660;23.262;2023-04-29T10:42:29;10.73;;;6.22;;
9461;SDS011;4769;42.660;23.262;2023-04-29T10:45:16;12.40;;;6.63;;
9461;SDS011;4769;42.660;23.262;2023-04-29T10:53:25;7.88;;;4.80;;
9461;SDS011;4769;42.660;23.262;2023-04-29T10:55:52;7.95;;;5.13;;
9461;SDS011;4769;42.660;23.262;2023-04-29T11:01:05;11.23;;;6.18;;
9461;SDS011;4769;42.660;23.262;2023-04-29T11:03:44;8.30;;;5.63;;
9461;SDS011;4769;42.660;23.262;2023-04-29T11:06:12;8.65;;;4.65;;
9461;SDS011;4769;42.660;23.262;2023-04-29T11:08:38;7.25;;;5.13;;
9461;SDS011;4769;42.660;23.262;2023-04-29T11:11:04;7.43;;;4.95;;
9461;SDS011;4769;42.660;23.262;2023-04-29T11:13:30;6.03;;;4.15;;
9461;SDS011;4769;42.660;23.262;2023-04-29T11:16:05;10.27;;;6.72;;
9461;SDS011;4769;42.660;23.262;2023-04-29T11:18:31;7.65;;;5.70;;
9461;SDS011;4769;42.660;23.262;2023-04-29T11:23:38;5.65;;;3.70;;
9461;SDS011;4769;42.660;23.262;2023-04-29T11:26:04;7.07;;;3.70;;
9461;SDS011;4769;42.660;23.262;2023-04-29T11:28:30;9.48;;;4.18;;
9461;SDS011;4769;42.660;23.262;2023-04-29T11:30:56;5.25;;;3.53;;
9461;SDS011;4769;42.660;23.262;2023-04-29T11:33:25;6.22;;;3.60;;
9461;SDS011;4769;42.660;23.262;2023-04-29T11:35:52;4.43;;;2.92;;
9461;SDS011;4769;42.660;23.262;2023-04-29T11:38:22;3.00;;;2.70;;
9461;SDS011;4769;42.660;23.262;2023-04-29T11:40:50;4.20;;;2.55;;
9461;SDS011;4769;42.660;23.262;2023-04-29T11:43:17;6.05;;;2.38;;
9461;SDS011;4769;42.660;23.262;2023-04-29T11:45:44;3.78;;;2.22;;
9461;SDS011;4769;42.660;23.262;2023-04-29T11:48:16;4.65;;;2.80;;
9461;SDS011;4769;42.660;23.262;2023-04-29T11:50:44;6.38;;;2.70;;
9461;SDS011;4769;42.660;23.262;2023-04-29T11:53:11;4.22;;;2.80;;
9461;SDS011;4769;42.660;23.262;2023-04-29T11:55:37;3.75;;;2.78;;
9461;SDS011;4769;42.660;23.262;2023-04-29T11:58:03;3.63;;;2.63;;
9461;SDS011;4769;42.660;23.262;2023-04-29T12:00:29;3.88;;;2.97;;
9461;SDS011;4769;42.660;23.262;2023-04-29T12:02:55;3.75;;;2.55;;
9461;SDS011;4769;42.660;23.262;2023-04-29T12:05:24;5.20;;;3.10;;
9461;SDS011;4769;42.660;23.262;2023-04-29T12:07:53;3.15;;;2.47;;
9461;SDS011;4769;42.660;23.262;2023-04-29T12:10:19;7.38;;;5.30;;
9461;SDS011;4769;42.660;23.262;2023-04-29T12:12:45;5.45;;;4.18;;
9461;SDS011;4769;42.660;23.262;2023-04-29T12:15:12;7.13;;;2.90;;
9461;SDS011;4769;42.660;23.262;2023-04-29T12:17:38;5.75;;;4.05;;
9461;SDS011;4769;42.660;23.262;2023-04-29T12:20:05;3.97;;;2.83;;
9461;SDS011;4769;42.660;23.262;2023-04-29T12:22:32;7.60;;;3.20;;
9461;SDS011;4769;42.660;23.262;2023-04-29T12:25:00;5.03;;;3.17;;
9461;SDS011;4769;42.660;23.262;2023-04-29T12:27:30;5.82;;;2.80;;
9461;SDS011;4769;42.660;23.262;2023-04-29T12:29:56;4.57;;;2.75;;
9461;SDS011;4769;42.660;23.262;2023-04-29T12:32:22;4.65;;;3.05;;
9461;SDS011;4769;42.660;23.262;2023-04-29T12:34:49;6.95;;;3.47;;
9461;SDS011;4769;42.660;23.262;2023-04-29T12:37:15;4.47;;;2.70;;
9461;SDS011;4769;42.660;23.262;2023-04-29T12:39:41;5.35;;;2.60;;
9461;SDS011;4769;42.660;23.262;2023-04-29T12:42:13;6.07;;;2.80;;
9461;SDS011;4769;42.660;23.262;2023-04-29T12:44:40;3.97;;;2.70;;
9461;SDS011;4769;42.660;23.262;2023-04-29T12:47:06;3.85;;;2.72;;
9461;SDS011;4769;42.660;23.262;2023-04-29T12:49:33;3.88;;;2.47;;
9461;SDS011;4769;42.660;23.262;2023-04-29T12:51:58;6.95;;;2.50;;
9461;SDS011;4769;42.660;23.262;2023-04-29T12:54:24;5.30;;;2.47;;
9461;SDS011;4769;42.660;23.262;2023-04-29T12:56:50;4.68;;;2.55;;
9461;SDS011;4769;42.660;23.262;2023-04-29T12:59:18;6.63;;;2.78;;
9461;SDS011;4769;42.660;23.262;2023-04-29T13:01:44;3.60;;;2.30;;
9461;SDS011;4769;42.660;23.262;2023-04-29T13:04:10;6.70;;;2.78;;
9461;SDS011;4769;42.660;23.262;2023-04-29T13:06:36;2.95;;;2.40;;
9461;SDS011;4769;42.660;23.262;2023-04-29T13:09:01;23.73;;;21.35;;
9461;SDS011;4769;42.660;23.262;2023-04-29T13:11:27;18.77;;;14.10;;
9461;SDS011;4769;42.660;23.262;2023-04-29T13:13:53;4.97;;;4.45;;
9461;SDS011;4769;42.660;23.262;2023-04-29T13:16:21;4.15;;;2.50;;
9461;SDS011;4769;42.660;23.262;2023-04-29T13:18:47;3.22;;;2.40;;
9461;SDS011;4769;42.660;23.262;2023-04-29T13:21:12;4.30;;;2.45;;
9461;SDS011;4769;42.660;23.262;2023-04-29T13:23:38;6.50;;;2.38;;
9461;SDS011;4769;42.660;23.262;2023-04-29T13:26:07;3.53;;;2.05;;
9461;SDS011;4769;42.660;23.262;2023-04-29T13:28:33;5.20;;;2.30;;
9461;SDS011;4769;42.660;23.262;2023-04-29T13:30:58;2.42;;;2.15;;
9461;SDS011;4769;42.660;23.262;2023-04-29T13:33:27;2.92;;;2.33;;
9461;SDS011;4769;42.660;23.262;2023-04-29T13:35:52;2.45;;;2.15;;
9461;SDS011;4769;42.660;23.262;2023-04-29T13:38:18;2.67;;;2.30;;
9461;SDS011;4769;42.660;23.262;2023-04-29T13:40:44;3.25;;;2.20;;
9461;SDS011;4769;42.660;23.262;2023-04-29T13:43:09;5.57;;;2.53;;
9461;SDS011;4769;42.660;23.262;2023-04-29T13:45:35;5.25;;;2.20;;
9461;SDS011;4769;42.660;23.262;2023-04-29T13:48:01;3.95;;;2.40;;
9461;SDS011;4769;42.660;23.262;2023-04-29T13:50:29;4.80;;;2.90;;
9461;SDS011;4769;42.660;23.262;2023-04-29T13:52:55;4.03;;;2.42;;
9461;SDS011;4769;42.660;23.262;2023-04-29T13:55:20;3.03;;;2.17;;
9461;SDS011;4769;42.660;23.262;2023-04-29T13:57:46;4.50;;;2.65;;
9461;SDS011;4769;42.660;23.262;2023-04-29T14:00:13;3.35;;;2.80;;
9461;SDS011;4769;42.660;23.262;2023-04-29T14:02:39;3.97;;;2.53;;
9461;SDS011;4769;42.660;23.262;2023-04-29T14:05:05;3.30;;;2.55;;
9461;SDS011;4769;42.660;23.262;2023-04-29T14:07:34;4.13;;;2.80;;
9461;SDS011;4769;42.660;23.262;2023-04-29T14:10:00;5.30;;;2.90;;
9461;SDS011;4769;42.660;23.262;2023-04-29T14:12:25;4.70;;;2.97;;
9461;SDS011;4769;42.660;23.262;2023-04-29T14:14:51;8.35;;;3.40;;
9461;SDS011;4769;42.660;23.262;2023-04-29T14:17:17;5.15;;;3.30;;
9461;SDS011;4769;42.660;23.262;2023-04-29T14:19:42;8.18;;;3.30;;
9461;SDS011;4769;42.660;23.262;2023-04-29T14:22:08;5.43;;;2.95;;
9461;SDS011;4769;42.660;23.262;2023-04-29T14:24:39;6.30;;;3.50;;
9461;SDS011;4769;42.660;23.262;2023-04-29T14:27:05;5.93;;;3.53;;
9461;SDS011;4769;42.660;23.262;2023-04-29T14:29:30;6.03;;;3.58;;
9461;SDS011;4769;42.660;23.262;2023-04-29T14:31:56;3.60;;;3.22;;
9461;SDS011;4769;42.660;23.262;2023-04-29T14:34:22;3.75;;;3.15;;
9461;SDS011;4769;42.660;23.262;2023-04-29T14:36:47;6.03;;;3.30;;
9461;SDS011;4769;42.660;23.262;2023-04-29T14:39:13;6.07;;;3.33;;
9461;SDS011;4769;42.660;23.262;2023-04-29T14:41:41;7.22;;;3.30;;
9461;SDS011;4769;42.660;23.262;2023-04-29T14:44:07;4.63;;;3.13;;
9461;SDS011;4769;42.660;23.262;2023-04-29T14:46:33;7.93;;;3.47;;
9461;SDS011;4769;42.660;23.262;2023-04-29T14:48:59;3.63;;;2.90;;
9461;SDS011;4769;42.660;23.262;2023-04-29T14:51:24;3.92;;;3.35;;
9461;SDS011;4769;42.660;23.262;2023-04-29T14:53:50;4.97;;;3.15;;
9461;SDS011;4769;42.660;23.262;2023-04-29T14:56:16;4.63;;;3.03;;
9461;SDS011;4769;42.660;23.262;2023-04-29T14:58:44;3.72;;;2.80;;
9461;SDS011;4769;42.660;23.262;2023-04-29T15:01:10;4.22;;;2.75;;
9461;SDS011;4769;42.660;23.262;2023-04-29T15:03:35;8.10;;;3.67;;
9461;SDS011;4769;42.660;23.262;2023-04-29T15:06:01;4.55;;;3.03;;